sensor_id;sensor_type;location;lat;lon;timestamp;P1;durP1;ratioP1;P2;durP2;ratioP2
22030;SDS011;11179;52.106;21.024;2023-09-18T00:02:18;11.33;;;6.23;;
22030;SDS011;11179;52.106;21.024;2023-09-18T00:04:43;13.07;;;6.50;;
22030;SDS011;11179;52.106;21.024;2023-09-18T00:07:08;11.13;;;5.67;;
22030;SDS011;11179;52.106;21.024;2023-09-18T00:09:35;11.23;;;6.10;;
22030;SDS011;11179;52.106;21.024;2023-09-18T00:12:01;11.87;;;6.77;;
22030;SDS011;11179;52.106;21.024;2023-09-18T00:14:26;11.07;;;6.47;;
22030;SDS011;11179;52.106;21.024;2023-09-18T00:16:52;12.97;;;6.20;;
22030;SDS011;11179;52.106;21.024;2023-09-18T00:19:17;10.93;;;5.60;;
22030;SDS011;11179;52.106;21.024;2023-09-18T00:21:43;18.30;;;6.30;;
22030;SDS011;11179;52.106;21.024;2023-09-18T00:24:08;12.17;;;6.50;;
22030;SDS011;11179;52.106;21.024;2023-09-18T00:26:34;13.43;;;6.83;;
22030;SDS011;11179;52.106;21.024;2023-09-18T00:28:59;12.57;;;6.10;;
22030;SDS011;11179;52.106;21.024;2023-09-18T00:31:24;11.43;;;6.83;;
22030;SDS011;11179;52.106;21.024;2023-09-18T00:33:49;11.30;;;6.63;;
22030;SDS011;11179;52.106;21.024;2023-09-18T00:36:15;11.40;;;6.80;;
22030;SDS011;11179;52.106;21.024;2023-09-18T00:38:40;11.97;;;6.70;;
22030;SDS011;11179;52.106;21.024;2023-09-18T00:41:05;12.40;;;5.00;;
22030;SDS011;11179;52.106;21.024;2023-09-18T00:43:31;9.73;;;5.10;;
22030;SDS011;11179;52.106;21.024;2023-09-18T00:45:56;11.97;;;5.97;;
22030;SDS011;11179;52.106;21.024;2023-09-18T00:48:22;11.43;;;6.10;;
22030;SDS011;11179;52.106;21.024;2023-09-18T00:50:47;13.53;;;6.70;;
22030;SDS011;11179;52.106;21.024;2023-09-18T00:53:14;10.53;;;5.20;;
22030;SDS011;11179;52.106;21.024;2023-09-18T00:55:43;15.93;;;6.07;;
22030;SDS011;11179;52.106;21.024;2023-09-18T00:58:08;14.27;;;5.93;;
22030;SDS011;11179;52.106;21.024;2023-09-18T01:00:34;12.90;;;7.10;;
22030;SDS011;11179;52.106;21.024;2023-09-18T01:03:00;12.37;;;6.33;;
22030;SDS011;11179;52.106;21.024;2023-09-18T01:05:26;13.93;;;5.50;;
22030;SDS011;11179;52.106;21.024;2023-09-18T01:07:52;10.63;;;6.40;;
22030;SDS011;11179;52.106;21.024;2023-09-18T01:10:18;10.30;;;5.50;;
22030;SDS011;11179;52.106;21.024;2023-09-18T01:12:55;15.60;;;7.17;;
22030;SDS011;11179;52.106;21.024;2023-09-18T01:15:39;14.97;;;7.20;;
22030;SDS011;11179;52.106;21.024;2023-09-18T01:18:10;14.17;;;7.23;;
22030;SDS011;11179;52.106;21.024;2023-09-18T01:20:35;12.53;;;7.53;;
22030;SDS011;11179;52.106;21.024;2023-09-18T01:23:00;13.20;;;7.60;;
22030;SDS011;11179;52.106;21.024;2023-09-18T01:25:26;12.73;;;7.33;;
22030;SDS011;11179;52.106;21.024;2023-09-18T01:27:51;17.50;;;7.60;;
22030;SDS011;11179;52.106;21.024;2023-09-18T01:30:17;18.83;;;7.93;;
22030;SDS011;11179;52.106;21.024;2023-09-18T01:32:43;16.80;;;8.33;;
22030;SDS011;11179;52.106;21.024;2023-09-18T01:35:13;14.83;;;8.77;;
22030;SDS011;11179;52.106;21.024;2023-09-18T01:37:40;16.63;;;8.50;;
22030;SDS011;11179;52.106;21.024;2023-09-18T01:40:08;11.43;;;5.40;;
22030;SDS011;11179;52.106;21.024;2023-09-18T01:42:34;9.40;;;5.57;;
22030;SDS011;11179;52.106;21.024;2023-09-18T01:45:00;10.10;;;6.10;;
22030;SDS011;11179;52.106;21.024;2023-09-18T01:47:25;12.97;;;6.30;;
22030;SDS011;11179;52.106;21.024;2023-09-18T01:49:54;12.20;;;6.90;;
22030;SDS011;11179;52.106;21.024;2023-09-18T01:52:19;16.30;;;8.90;;
22030;SDS011;11179;52.106;21.024;2023-09-18T01:54:44;15.90;;;8.43;;
22030;SDS011;11179;52.106;21.024;2023-09-18T01:57:10;16.53;;;9.17;;
22030;SDS011;11179;52.106;21.024;2023-09-18T01:59:37;14.73;;;8.43;;
22030;SDS011;11179;52.106;21.024;2023-09-18T02:02:02;14.80;;;8.70;;
22030;SDS011;11179;52.106;21.024;2023-09-18T02:04:34;15.63;;;8.73;;
22030;SDS011;11179;52.106;21.024;2023-09-18T02:07:00;20.73;;;9.53;;
22030;SDS011;11179;52.106;21.024;2023-09-18T02:09:25;18.40;;;9.20;;
22030;SDS011;11179;52.106;21.024;2023-09-18T02:11:51;16.37;;;9.10;;
22030;SDS011;11179;52.106;21.024;2023-09-18T02:14:16;16.40;;;8.73;;
22030;SDS011;11179;52.106;21.024;2023-09-18T02:16:42;18.30;;;9.17;;
22030;SDS011;11179;52.106;21.024;2023-09-18T02:19:08;15.10;;;9.20;;
22030;SDS011;11179;52.106;21.024;2023-09-18T02:21:34;15.63;;;8.70;;
22030;SDS011;11179;52.106;21.024;2023-09-18T02:24:00;19.47;;;10.20;;
22030;SDS011;11179;52.106;21.024;2023-09-18T02:26:25;17.00;;;9.43;;
22030;SDS011;11179;52.106;21.024;2023-09-18T02:28:51;15.90;;;9.33;;
22030;SDS011;11179;52.106;21.024;2023-09-18T02:31:18;16.77;;;9.30;;
22030;SDS011;11179;52.106;21.024;2023-09-18T02:33:44;18.03;;;10.17;;
22030;SDS011;11179;52.106;21.024;2023-09-18T02:36:09;18.93;;;10.10;;
22030;SDS011;11179;52.106;21.024;2023-09-18T02:38:34;17.43;;;9.60;;
22030;SDS011;11179;52.106;21.024;2023-09-18T02:41:00;17.63;;;9.70;;
22030;SDS011;11179;52.106;21.024;2023-09-18T02:43:25;19.83;;;10.20;;
22030;SDS011;11179;52.106;21.024;2023-09-18T02:45:51;23.20;;;12.00;;
22030;SDS011;11179;52.106;21.024;2023-09-18T02:48:16;19.47;;;11.30;;
22030;SDS011;11179;52.106;21.024;2023-09-18T02:50:42;18.97;;;10.27;;
22030;SDS011;11179;52.106;21.024;2023-09-18T02:53:09;25.47;;;11.60;;
22030;SDS011;11179;52.106;21.024;2023-09-18T02:55:41;20.87;;;12.17;;
22030;SDS011;11179;52.106;21.024;2023-09-18T02:58:06;21.37;;;11.20;;
22030;SDS011;11179;52.106;21.024;2023-09-18T03:00:34;22.20;;;11.67;;
22030;SDS011;11179;52.106;21.024;2023-09-18T03:02:59;18.93;;;11.37;;
22030;SDS011;11179;52.106;21.024;2023-09-18T03:05:25;24.13;;;12.53;;
22030;SDS011;11179;52.106;21.024;2023-09-18T03:07:51;24.83;;;13.57;;
22030;SDS011;11179;52.106;21.024;2023-09-18T03:13:51;20.97;;;12.83;;
22030;SDS011;11179;52.106;21.024;2023-09-18T03:16:17;21.00;;;12.00;;
22030;SDS011;11179;52.106;21.024;2023-09-18T03:18:56;20.63;;;11.60;;
22030;SDS011;11179;52.106;21.024;2023-09-18T03:21:31;25.50;;;13.10;;
22030;SDS011;11179;52.106;21.024;2023-09-18T03:24:48;19.63;;;11.60;;
22030;SDS011;11179;52.106;21.024;2023-09-18T03:28:20;24.13;;;13.20;;
22030;SDS011;11179;52.106;21.024;2023-09-18T03:31:00;20.37;;;12.67;;
22030;SDS011;11179;52.106;21.024;2023-09-18T03:33:35;22.17;;;12.57;;
22030;SDS011;11179;52.106;21.024;2023-09-18T03:36:17;24.43;;;12.00;;
22030;SDS011;11179;52.106;21.024;2023-09-18T03:39:07;25.70;;;13.60;;
22030;SDS011;11179;52.106;21.024;2023-09-18T03:42:03;24.83;;;13.57;;
22030;SDS011;11179;52.106;21.024;2023-09-18T03:44:36;23.53;;;13.97;;
22030;SDS011;11179;52.106;21.024;2023-09-18T03:47:39;25.10;;;13.40;;
22030;SDS011;11179;52.106;21.024;2023-09-18T03:50:06;23.00;;;12.27;;
22030;SDS011;11179;52.106;21.024;2023-09-18T03:52:36;23.13;;;12.27;;
22030;SDS011;11179;52.106;21.024;2023-09-18T03:55:05;21.27;;;12.43;;
22030;SDS011;11179;52.106;21.024;2023-09-18T03:57:31;24.10;;;12.57;;
22030;SDS011;11179;52.106;21.024;2023-09-18T03:59:56;23.07;;;12.20;;
22030;SDS011;11179;52.106;21.024;2023-09-18T04:02:23;21.30;;;11.73;;
22030;SDS011;11179;52.106;21.024;2023-09-18T04:04:50;26.63;;;13.53;;
22030;SDS011;11179;52.106;21.024;2023-09-18T04:07:15;27.17;;;13.37;;
22030;SDS011;11179;52.106;21.024;2023-09-18T04:09:41;20.57;;;11.87;;
22030;SDS011;11179;52.106;21.024;2023-09-18T04:12:07;24.00;;;12.80;;
22030;SDS011;11179;52.106;21.024;2023-09-18T04:14:33;23.10;;;11.97;;
22030;SDS011;11179;52.106;21.024;2023-09-18T04:16:58;22.77;;;12.93;;
22030;SDS011;11179;52.106;21.024;2023-09-18T04:19:25;29.40;;;13.27;;
22030;SDS011;11179;52.106;21.024;2023-09-18T04:21:51;21.30;;;12.80;;
22030;SDS011;11179;52.106;21.024;2023-09-18T04:24:16;22.70;;;13.30;;
22030;SDS011;11179;52.106;21.024;2023-09-18T04:26:42;22.00;;;12.50;;
22030;SDS011;11179;52.106;21.024;2023-09-18T04:29:07;21.83;;;12.60;;
22030;SDS011;11179;52.106;21.024;2023-09-18T04:31:33;22.67;;;12.63;;
22030;SDS011;11179;52.106;21.024;2023-09-18T04:33:58;25.37;;;12.53;;
22030;SDS011;11179;52.106;21.024;2023-09-18T04:36:24;22.90;;;12.23;;
22030;SDS011;11179;52.106;21.024;2023-09-18T04:38:50;20.37;;;11.87;;
22030;SDS011;11179;52.106;21.024;2023-09-18T04:41:15;25.63;;;12.90;;
22030;SDS011;11179;52.106;21.024;2023-09-18T04:43:41;22.87;;;13.80;;
22030;SDS011;11179;52.106;21.024;2023-09-18T04:46:07;22.80;;;12.70;;
22030;SDS011;11179;52.106;21.024;2023-09-18T04:48:33;23.83;;;13.03;;
22030;SDS011;11179;52.106;21.024;2023-09-18T04:50:59;24.00;;;13.10;;
22030;SDS011;11179;52.106;21.024;2023-09-18T04:53:25;22.80;;;13.27;;
22030;SDS011;11179;52.106;21.024;2023-09-18T04:55:51;26.93;;;12.90;;
22030;SDS011;11179;52.106;21.024;2023-09-18T04:58:17;35.73;;;14.57;;
22030;SDS011;11179;52.106;21.024;2023-09-18T05:00:42;25.57;;;13.33;;
22030;SDS011;11179;52.106;21.024;2023-09-18T05:10:11;22.23;;;13.03;;
22030;SDS011;11179;52.106;21.024;2023-09-18T05:12:42;23.53;;;12.83;;
22030;SDS011;11179;52.106;21.024;2023-09-18T05:15:15;20.43;;;12.17;;
22030;SDS011;11179;52.106;21.024;2023-09-18T05:17:59;24.57;;;13.30;;
22030;SDS011;11179;52.106;21.024;2023-09-18T05:20:50;24.87;;;12.67;;
22030;SDS011;11179;52.106;21.024;2023-09-18T05:23:21;23.53;;;12.77;;
22030;SDS011;11179;52.106;21.024;2023-09-18T05:25:54;24.27;;;13.17;;
22030;SDS011;11179;52.106;21.024;2023-09-18T05:32:02;26.33;;;14.60;;
22030;SDS011;11179;52.106;21.024;2023-09-18T05:34:46;23.20;;;13.90;;
22030;SDS011;11179;52.106;21.024;2023-09-18T05:37:33;22.40;;;13.20;;
22030;SDS011;11179;52.106;21.024;2023-09-18T05:40:04;24.97;;;13.33;;
22030;SDS011;11179;52.106;21.024;2023-09-18T05:42:47;20.90;;;12.90;;
22030;SDS011;11179;52.106;21.024;2023-09-18T05:45:56;25.27;;;13.40;;
22030;SDS011;11179;52.106;21.024;2023-09-18T05:49:01;29.83;;;14.93;;
22030;SDS011;11179;52.106;21.024;2023-09-18T05:52:03;26.80;;;13.73;;
22030;SDS011;11179;52.106;21.024;2023-09-18T05:55:05;23.83;;;13.33;;
22030;SDS011;11179;52.106;21.024;2023-09-18T05:57:52;27.67;;;13.90;;
22030;SDS011;11179;52.106;21.024;2023-09-18T06:00:23;24.17;;;12.93;;
22030;SDS011;11179;52.106;21.024;2023-09-18T06:03:05;22.80;;;13.30;;
22030;SDS011;11179;52.106;21.024;2023-09-18T06:12:16;24.20;;;13.23;;
22030;SDS011;11179;52.106;21.024;2023-09-18T06:15:29;27.93;;;13.53;;
22030;SDS011;11179;52.106;21.024;2023-09-18T06:18:15;22.90;;;12.90;;
22030;SDS011;11179;52.106;21.024;2023-09-18T06:40:46;20.20;;;11.73;;
22030;SDS011;11179;52.106;21.024;2023-09-18T06:43:30;21.10;;;11.20;;
22030;SDS011;11179;52.106;21.024;2023-09-18T06:46:37;18.33;;;11.40;;
22030;SDS011;11179;52.106;21.024;2023-09-18T06:49:43;21.93;;;11.77;;
22030;SDS011;11179;52.106;21.024;2023-09-18T06:52:26;21.13;;;11.03;;
22030;SDS011;11179;52.106;21.024;2023-09-18T06:55:13;16.73;;;10.67;;
22030;SDS011;11179;52.106;21.024;2023-09-18T06:57:41;21.87;;;11.73;;
22030;SDS011;11179;52.106;21.024;2023-09-18T07:00:16;21.30;;;11.53;;
22030;SDS011;11179;52.106;21.024;2023-09-18T07:03:11;19.63;;;11.30;;
22030;SDS011;11179;52.106;21.024;2023-09-18T07:05:42;21.13;;;10.90;;
22030;SDS011;11179;52.106;21.024;2023-09-18T07:08:35;19.17;;;11.50;;
22030;SDS011;11179;52.106;21.024;2023-09-18T07:11:18;22.53;;;11.30;;
22030;SDS011;11179;52.106;21.024;2023-09-18T07:13:52;19.90;;;11.50;;
22030;SDS011;11179;52.106;21.024;2023-09-18T07:16:43;19.07;;;11.90;;
22030;SDS011;11179;52.106;21.024;2023-09-18T07:19:55;16.60;;;10.37;;
22030;SDS011;11179;52.106;21.024;2023-09-18T07:22:50;23.67;;;10.30;;
22030;SDS011;11179;52.106;21.024;2023-09-18T07:25:35;21.33;;;11.83;;
22030;SDS011;11179;52.106;21.024;2023-09-18T07:28:44;24.27;;;10.73;;
22030;SDS011;11179;52.106;21.024;2023-09-18T07:31:17;19.40;;;9.43;;
22030;SDS011;11179;52.106;21.024;2023-09-18T07:33:54;19.60;;;11.00;;
22030;SDS011;11179;52.106;21.024;2023-09-18T07:36:35;16.33;;;9.90;;
22030;SDS011;11179;52.106;21.024;2023-09-18T07:39:29;18.93;;;9.90;;
22030;SDS011;11179;52.106;21.024;2023-09-18T07:42:11;29.80;;;12.27;;
22030;SDS011;11179;52.106;21.024;2023-09-18T07:44:53;18.83;;;10.60;;
22030;SDS011;11179;52.106;21.024;2023-09-18T07:47:48;33.67;;;12.23;;
22030;SDS011;11179;52.106;21.024;2023-09-18T07:50:24;17.30;;;10.77;;
22030;SDS011;11179;52.106;21.024;2023-09-18T07:53:22;20.93;;;10.97;;
22030;SDS011;11179;52.106;21.024;2023-09-18T07:55:48;28.47;;;10.80;;
22030;SDS011;11179;52.106;21.024;2023-09-18T07:58:20;24.27;;;9.70;;
22030;SDS011;11179;52.106;21.024;2023-09-18T08:00:45;19.50;;;10.80;;
22030;SDS011;11179;52.106;21.024;2023-09-18T08:03:13;20.40;;;10.13;;
22030;SDS011;11179;52.106;21.024;2023-09-18T08:05:38;16.10;;;10.67;;
22030;SDS011;11179;52.106;21.024;2023-09-18T08:08:04;13.43;;;8.77;;
22030;SDS011;11179;52.106;21.024;2023-09-18T08:10:30;14.17;;;9.50;;
22030;SDS011;11179;52.106;21.024;2023-09-18T08:12:56;32.57;;;12.23;;
22030;SDS011;11179;52.106;21.024;2023-09-18T08:15:21;18.60;;;10.20;;
22030;SDS011;11179;52.106;21.024;2023-09-18T08:17:47;24.57;;;10.20;;
22030;SDS011;11179;52.106;21.024;2023-09-18T08:20:14;26.90;;;11.23;;
22030;SDS011;11179;52.106;21.024;2023-09-18T08:22:40;17.77;;;9.60;;
22030;SDS011;11179;52.106;21.024;2023-09-18T08:25:06;18.97;;;9.17;;
22030;SDS011;11179;52.106;21.024;2023-09-18T08:27:36;17.67;;;8.57;;
22030;SDS011;11179;52.106;21.024;2023-09-18T08:30:06;14.93;;;8.90;;
22030;SDS011;11179;52.106;21.024;2023-09-18T08:32:34;14.70;;;9.30;;
22030;SDS011;11179;52.106;21.024;2023-09-18T08:34:59;16.33;;;9.53;;
22030;SDS011;11179;52.106;21.024;2023-09-18T08:37:26;22.50;;;9.30;;
22030;SDS011;11179;52.106;21.024;2023-09-18T08:39:52;13.30;;;9.13;;
22030;SDS011;11179;52.106;21.024;2023-09-18T08:42:17;14.80;;;9.53;;
22030;SDS011;11179;52.106;21.024;2023-09-18T08:44:45;18.50;;;8.90;;
22030;SDS011;11179;52.106;21.024;2023-09-18T08:47:15;15.73;;;8.90;;
22030;SDS011;11179;52.106;21.024;2023-09-18T08:49:42;25.63;;;9.83;;
22030;SDS011;11179;52.106;21.024;2023-09-18T08:52:08;15.57;;;9.00;;
22030;SDS011;11179;52.106;21.024;2023-09-18T08:54:33;16.73;;;9.67;;
22030;SDS011;11179;52.106;21.024;2023-09-18T08:56:59;15.60;;;8.60;;
22030;SDS011;11179;52.106;21.024;2023-09-18T08:59:25;18.10;;;8.70;;
22030;SDS011;11179;52.106;21.024;2023-09-18T09:01:52;17.80;;;8.87;;
22030;SDS011;11179;52.106;21.024;2023-09-18T09:04:18;17.27;;;8.73;;
22030;SDS011;11179;52.106;21.024;2023-09-18T09:06:43;13.40;;;8.93;;
22030;SDS011;11179;52.106;21.024;2023-09-18T09:09:09;19.27;;;8.07;;
22030;SDS011;11179;52.106;21.024;2023-09-18T09:11:38;15.33;;;8.03;;
22030;SDS011;11179;52.106;21.024;2023-09-18T09:14:10;19.80;;;9.17;;
22030;SDS011;11179;52.106;21.024;2023-09-18T09:16:41;27.73;;;8.90;;
22030;SDS011;11179;52.106;21.024;2023-09-18T09:19:11;18.87;;;8.23;;
22030;SDS011;11179;52.106;21.024;2023-09-18T09:21:40;13.87;;;7.50;;
22030;SDS011;11179;52.106;21.024;2023-09-18T09:24:08;21.80;;;8.40;;
22030;SDS011;11179;52.106;21.024;2023-09-18T09:26:39;18.43;;;7.07;;
22030;SDS011;11179;52.106;21.024;2023-09-18T09:29:38;28.20;;;9.73;;
22030;SDS011;11179;52.106;21.024;2023-09-18T09:31:56;12.90;;;7.80;;
22030;SDS011;11179;52.106;21.024;2023-09-18T09:34:36;17.00;;;7.40;;
22030;SDS011;11179;52.106;21.024;2023-09-18T09:37:02;11.20;;;7.10;;
22030;SDS011;11179;52.106;21.024;2023-09-18T09:39:29;13.13;;;7.53;;
22030;SDS011;11179;52.106;21.024;2023-09-18T09:41:55;14.37;;;8.00;;
22030;SDS011;11179;52.106;21.024;2023-09-18T09:44:28;11.93;;;6.57;;
22030;SDS011;11179;52.106;21.024;2023-09-18T09:46:56;11.50;;;6.00;;
22030;SDS011;11179;52.106;21.024;2023-09-18T09:49:24;10.80;;;6.20;;
22030;SDS011;11179;52.106;21.024;2023-09-18T09:51:52;12.97;;;6.23;;
22030;SDS011;11179;52.106;21.024;2023-09-18T09:54:31;16.80;;;6.43;;
22030;SDS011;11179;52.106;21.024;2023-09-18T09:56:59;11.90;;;5.43;;
22030;SDS011;11179;52.106;21.024;2023-09-18T10:00:03;37.43;;;7.30;;
22030;SDS011;11179;52.106;21.024;2023-09-18T10:02:57;21.77;;;6.70;;
22030;SDS011;11179;52.106;21.024;2023-09-18T10:05:40;11.03;;;5.50;;
22030;SDS011;11179;52.106;21.024;2023-09-18T10:11:34;13.77;;;6.10;;
22030;SDS011;11179;52.106;21.024;2023-09-18T10:14:30;19.90;;;6.53;;
22030;SDS011;11179;52.106;21.024;2023-09-18T10:17:19;13.90;;;6.10;;
22030;SDS011;11179;52.106;21.024;2023-09-18T10:20:05;15.33;;;6.70;;
22030;SDS011;11179;52.106;21.024;2023-09-18T10:22:42;10.40;;;5.20;;
22030;SDS011;11179;52.106;21.024;2023-09-18T10:25:44;18.53;;;5.63;;
22030;SDS011;11179;52.106;21.024;2023-09-18T10:28:36;13.30;;;5.60;;
22030;SDS011;11179;52.106;21.024;2023-09-18T10:34:43;8.43;;;5.33;;
22030;SDS011;11179;52.106;21.024;2023-09-18T10:37:39;9.87;;;5.40;;
22030;SDS011;11179;52.106;21.024;2023-09-18T10:40:31;10.20;;;5.23;;
22030;SDS011;11179;52.106;21.024;2023-09-18T10:43:23;10.37;;;5.50;;
22030;SDS011;11179;52.106;21.024;2023-09-18T10:46:18;14.23;;;6.23;;
22030;SDS011;11179;52.106;21.024;2023-09-18T10:49:29;8.83;;;5.50;;
22030;SDS011;11179;52.106;21.024;2023-09-18T10:52:14;13.67;;;5.50;;
22030;SDS011;11179;52.106;21.024;2023-09-18T10:54:54;16.33;;;6.47;;
22030;SDS011;11179;52.106;21.024;2023-09-18T11:00:32;16.23;;;6.77;;
22030;SDS011;11179;52.106;21.024;2023-09-18T11:03:12;11.30;;;6.33;;
22030;SDS011;11179;52.106;21.024;2023-09-18T11:06:08;9.73;;;5.63;;
22030;SDS011;11179;52.106;21.024;2023-09-18T11:08:49;13.57;;;5.87;;
22030;SDS011;11179;52.106;21.024;2023-09-18T11:14:21;11.57;;;5.90;;
22030;SDS011;11179;52.106;21.024;2023-09-18T11:21:06;17.83;;;7.63;;
22030;SDS011;11179;52.106;21.024;2023-09-18T11:24:04;12.13;;;6.63;;
22030;SDS011;11179;52.106;21.024;2023-09-18T11:26:57;9.47;;;6.10;;
22030;SDS011;11179;52.106;21.024;2023-09-18T11:29:41;14.30;;;6.90;;
22030;SDS011;11179;52.106;21.024;2023-09-18T11:46:05;16.37;;;6.60;;
22030;SDS011;11179;52.106;21.024;2023-09-18T11:48:51;20.70;;;7.57;;
22030;SDS011;11179;52.106;21.024;2023-09-18T11:54:42;10.93;;;6.13;;
22030;SDS011;11179;52.106;21.024;2023-09-18T11:57:28;10.80;;;6.80;;
22030;SDS011;11179;52.106;21.024;2023-09-18T12:00:15;11.70;;;6.27;;
22030;SDS011;11179;52.106;21.024;2023-09-18T12:03:16;14.40;;;6.27;;
22030;SDS011;11179;52.106;21.024;2023-09-18T12:06:07;18.93;;;6.90;;
22030;SDS011;11179;52.106;21.024;2023-09-18T12:09:01;8.50;;;5.57;;
22030;SDS011;11179;52.106;21.024;2023-09-18T12:12:05;14.43;;;6.30;;
22030;SDS011;11179;52.106;21.024;2023-09-18T12:14:44;13.63;;;6.97;;
22030;SDS011;11179;52.106;21.024;2023-09-18T12:17:14;13.13;;;7.10;;
22030;SDS011;11179;52.106;21.024;2023-09-18T12:20:00;13.13;;;7.00;;
22030;SDS011;11179;52.106;21.024;2023-09-18T12:22:31;15.17;;;7.20;;
22030;SDS011;11179;52.106;21.024;2023-09-18T12:28:43;12.60;;;6.73;;
22030;SDS011;11179;52.106;21.024;2023-09-18T12:31:30;13.67;;;7.30;;
22030;SDS011;11179;52.106;21.024;2023-09-18T12:44:29;12.23;;;6.80;;
22030;SDS011;11179;52.106;21.024;2023-09-18T12:47:21;11.67;;;6.83;;
22030;SDS011;11179;52.106;21.024;2023-09-18T12:49:51;14.73;;;7.53;;
22030;SDS011;11179;52.106;21.024;2023-09-18T12:56:00;17.50;;;7.27;;
22030;SDS011;11179;52.106;21.024;2023-09-18T12:58:56;22.93;;;8.00;;
22030;SDS011;11179;52.106;21.024;2023-09-18T13:01:29;18.90;;;8.33;;
22030;SDS011;11179;52.106;21.024;2023-09-18T13:04:14;16.47;;;7.00;;
22030;SDS011;11179;52.106;21.024;2023-09-18T13:10:25;12.93;;;7.30;;
22030;SDS011;11179;52.106;21.024;2023-09-18T13:13:12;12.43;;;7.17;;
22030;SDS011;11179;52.106;21.024;2023-09-18T13:15:42;11.90;;;7.23;;
22030;SDS011;11179;52.106;21.024;2023-09-18T13:18:11;12.83;;;7.90;;
22030;SDS011;11179;52.106;21.024;2023-09-18T13:24:38;19.50;;;7.87;;
22030;SDS011;11179;52.106;21.024;2023-09-18T13:27:56;14.20;;;7.23;;
22030;SDS011;11179;52.106;21.024;2023-09-18T13:31:17;12.83;;;7.37;;
22030;SDS011;11179;52.106;21.024;2023-09-18T13:34:30;12.80;;;8.07;;
22030;SDS011;11179;52.106;21.024;2023-09-18T13:37:10;12.93;;;7.67;;
22030;SDS011;11179;52.106;21.024;2023-09-18T13:39:53;12.97;;;7.50;;
22030;SDS011;11179;52.106;21.024;2023-09-18T13:42:18;19.80;;;7.40;;
22030;SDS011;11179;52.106;21.024;2023-09-18T13:44:44;12.07;;;6.73;;
22030;SDS011;11179;52.106;21.024;2023-09-18T13:47:11;16.60;;;7.23;;
22030;SDS011;11179;52.106;21.024;2023-09-18T13:49:37;10.93;;;6.50;;
22030;SDS011;11179;52.106;21.024;2023-09-18T13:52:03;13.60;;;6.97;;
22030;SDS011;11179;52.106;21.024;2023-09-18T13:54:28;11.50;;;6.30;;
22030;SDS011;11179;52.106;21.024;2023-09-18T14:27:41;15.60;;;8.27;;
22030;SDS011;11179;52.106;21.024;2023-09-18T14:30:46;15.63;;;7.43;;
22030;SDS011;11179;52.106;21.024;2023-09-18T14:37:07;15.40;;;7.30;;
22030;SDS011;11179;52.106;21.024;2023-09-18T14:43:36;13.93;;;6.83;;
22030;SDS011;11179;52.106;21.024;2023-09-18T14:53:16;17.27;;;7.43;;
22030;SDS011;11179;52.106;21.024;2023-09-18T14:59:12;18.20;;;9.40;;
22030;SDS011;11179;52.106;21.024;2023-09-18T15:05:00;14.87;;;8.50;;
22030;SDS011;11179;52.106;21.024;2023-09-18T15:11:29;14.57;;;8.20;;
22030;SDS011;11179;52.106;21.024;2023-09-18T15:21:07;15.40;;;9.10;;
22030;SDS011;11179;52.106;21.024;2023-09-18T15:24:17;13.97;;;8.70;;
22030;SDS011;11179;52.106;21.024;2023-09-18T15:27:02;15.27;;;9.80;;
22030;SDS011;11179;52.106;21.024;2023-09-18T15:33:22;27.97;;;9.10;;
22030;SDS011;11179;52.106;21.024;2023-09-18T15:43:34;26.23;;;9.43;;
22030;SDS011;11179;52.106;21.024;2023-09-18T15:46:16;21.33;;;9.57;;
22030;SDS011;11179;52.106;21.024;2023-09-18T15:49:08;18.87;;;9.13;;
22030;SDS011;11179;52.106;21.024;2023-09-18T15:51:55;17.77;;;9.73;;
22030;SDS011;11179;52.106;21.024;2023-09-18T15:54:56;21.03;;;10.57;;
22030;SDS011;11179;52.106;21.024;2023-09-18T15:57:37;19.50;;;10.10;;
22030;SDS011;11179;52.106;21.024;2023-09-18T16:00:07;16.60;;;9.70;;
22030;SDS011;11179;52.106;21.024;2023-09-18T16:02:43;24.60;;;11.13;;
22030;SDS011;11179;52.106;21.024;2023-09-18T16:05:16;18.20;;;9.40;;
22030;SDS011;11179;52.106;21.024;2023-09-18T16:07:59;20.33;;;10.23;;
22030;SDS011;11179;52.106;21.024;2023-09-18T16:11:01;20.53;;;9.70;;
22030;SDS011;11179;52.106;21.024;2023-09-18T16:13:43;16.07;;;9.90;;
22030;SDS011;11179;52.106;21.024;2023-09-18T16:16:34;15.97;;;9.10;;
22030;SDS011;11179;52.106;21.024;2023-09-18T16:19:02;18.00;;;9.50;;
22030;SDS011;11179;52.106;21.024;2023-09-18T16:21:58;24.43;;;10.90;;
22030;SDS011;11179;52.106;21.024;2023-09-18T16:24:53;19.20;;;10.40;;
22030;SDS011;11179;52.106;21.024;2023-09-18T16:27:48;22.93;;;10.43;;
22030;SDS011;11179;52.106;21.024;2023-09-18T16:33:48;22.00;;;11.07;;
22030;SDS011;11179;52.106;21.024;2023-09-18T16:36:42;17.70;;;10.70;;
22030;SDS011;11179;52.106;21.024;2023-09-18T16:42:57;16.73;;;9.40;;
22030;SDS011;11179;52.106;21.024;2023-09-18T16:45:46;20.97;;;10.43;;
22030;SDS011;11179;52.106;21.024;2023-09-18T16:48:53;18.30;;;10.23;;
22030;SDS011;11179;52.106;21.024;2023-09-18T16:51:30;22.33;;;11.50;;
22030;SDS011;11179;52.106;21.024;2023-09-18T17:00:22;24.57;;;10.73;;
22030;SDS011;11179;52.106;21.024;2023-09-18T17:02:57;18.30;;;10.77;;
22030;SDS011;11179;52.106;21.024;2023-09-18T17:05:48;18.20;;;10.20;;
22030;SDS011;11179;52.106;21.024;2023-09-18T17:08:22;18.67;;;10.00;;
22030;SDS011;11179;52.106;21.024;2023-09-18T17:10:48;18.40;;;11.20;;
22030;SDS011;11179;52.106;21.024;2023-09-18T17:13:13;25.43;;;11.90;;
22030;SDS011;11179;52.106;21.024;2023-09-18T17:15:38;26.03;;;10.70;;
22030;SDS011;11179;52.106;21.024;2023-09-18T17:18:05;21.93;;;11.13;;
22030;SDS011;11179;52.106;21.024;2023-09-18T17:20:31;19.40;;;11.63;;
22030;SDS011;11179;52.106;21.024;2023-09-18T17:22:57;27.83;;;15.73;;
22030;SDS011;11179;52.106;21.024;2023-09-18T17:35:33;36.40;;;12.70;;
22030;SDS011;11179;52.106;21.024;2023-09-18T17:41:29;24.23;;;13.03;;
22030;SDS011;11179;52.106;21.024;2023-09-18T18:04:34;24.80;;;13.20;;
22030;SDS011;11179;52.106;21.024;2023-09-18T18:09:53;21.87;;;12.20;;
22030;SDS011;11179;52.106;21.024;2023-09-18T18:12:29;31.87;;;14.90;;
22030;SDS011;11179;52.106;21.024;2023-09-18T18:14:57;25.10;;;13.87;;
22030;SDS011;11179;52.106;21.024;2023-09-18T18:17:24;25.70;;;12.17;;
22030;SDS011;11179;52.106;21.024;2023-09-18T18:19:49;27.33;;;13.03;;
22030;SDS011;11179;52.106;21.024;2023-09-18T18:22:15;25.87;;;13.23;;
22030;SDS011;11179;52.106;21.024;2023-09-18T18:24:40;25.57;;;14.47;;
22030;SDS011;11179;52.106;21.024;2023-09-18T18:27:05;21.40;;;11.60;;
22030;SDS011;11179;52.106;21.024;2023-09-18T18:29:32;27.33;;;13.87;;
22030;SDS011;11179;52.106;21.024;2023-09-18T18:31:57;29.60;;;12.70;;
22030;SDS011;11179;52.106;21.024;2023-09-18T18:34:22;27.87;;;13.93;;
22030;SDS011;11179;52.106;21.024;2023-09-18T18:36:49;20.97;;;12.20;;
22030;SDS011;11179;52.106;21.024;2023-09-18T18:39:15;21.30;;;12.50;;
22030;SDS011;11179;52.106;21.024;2023-09-18T18:41:41;22.30;;;13.20;;
22030;SDS011;11179;52.106;21.024;2023-09-18T18:44:06;26.30;;;13.50;;
22030;SDS011;11179;52.106;21.024;2023-09-18T18:46:31;27.80;;;12.93;;
22030;SDS011;11179;52.106;21.024;2023-09-18T18:48:57;23.33;;;12.73;;